Ana Sayfa
METAR-TAF:

METAR-TAF

Havaalanları :

Ondangwa, Namibya

Enlem: 17-52-42S, Boylam: 015-57-09E, yükseklik: 1096 m

Güncel hava durumu gözlemi

Rapor saat 00:00 UTC de 21 dakika önce yapıldı.
Rüzgar güneydan 5 kt
Sıcaklık 24°C
Nem 14%
Basınç 1016 hPa

METAR: FYOA 170000Z AUTO 18005KT //// // ////// 24/M05 Q1016

Saat: 02:21 (00:21 UTC)

Tahmin

Rapor saat 20:00 UTC de 4 saat ve 21 dakika önce yapıldı.
Ayın 16'si saat 21 UTC'den ayın 17'si saat 06 UTC'ye kadar geçerli Tahmin
Rüzgar kuzeydan kt
Görüş mesafesi 10 km veya daha fazla
1500 m altında bulut yok ve kümülonimbus yok

TAF: FYOA 162000Z 1621/1706 00000KT CAVOK

4.000'den fazla havaalanı için hava durumu gözlemleri ve tahminleri (METAR ve TAF raporları).

Kullanılabilir istasyonlar harita üzerinde sarı ve kırmızı noktalarla gösterilir.

İstasyonun adını görmek için fareyi noktanın üzerinde gezdirin.

Sonrasında hava gözlem ve tahminlerini görmek için tıklayın.

Haritayı değiştirmek için: yaklaştırmak için siyah artı işaretli yeşil düğmeye ve uzaklaştırmak için de eksi işaretli düğmeye hızla tıklayın; bitişik haritalar için yeşil okları kullanın.


METAR-TAF: